Terminal Aerodrome Forecast
Issued by NWS Portland, OR

Home | Current Version | Previous Version | Text Only | Print | Product List | Glossary On
Versions: 1 2 3 4 5 6 7 8 9 10 11 12 13 14 15 16 17
000
FTUS46 KPQR 211334 AAA
TAFSLE
TAF AMD
KSLE 211334Z 2114/2212 02003KT 5SM -RA BR BKN007 OVC025
     FM211500 34003KT 4SM -RA BR OVC018
     FM212100 23007KT P6SM -RA OVC030
     FM220000 20004KT P6SM BKN035=

USA.gov is the U.S. government's official web portal to all federal, state and local government web resources and services.